createdAt,value
2022-09-15T00:01:17.299Z,12.10
2022-09-15T00:03:46.848Z,9.83
2022-09-15T00:06:15.497Z,15.20
2022-09-15T00:08:44.767Z,9.77
2022-09-15T00:11:17.314Z,11.37
2022-09-15T00:13:46.514Z,14.17
2022-09-15T00:16:15.758Z,17.13
2022-09-15T00:18:44.583Z,14.80
2022-09-15T00:21:18.324Z,17.13
2022-09-15T00:23:46.732Z,15.20
2022-09-15T00:26:19.946Z,21.30
2022-09-15T00:28:48.725Z,21.13
2022-09-15T00:31:18.752Z,20.20
2022-09-15T00:33:49.343Z,14.03
2022-09-15T00:36:19.820Z,15.17
2022-09-15T00:38:48.342Z,14.90
2022-09-15T00:41:19.017Z,18.00
2022-09-15T00:43:51.547Z,14.10
2022-09-15T00:46:21.757Z,13.10
2022-09-15T00:48:59.078Z,14.83
2022-09-15T00:51:36.779Z,13.40
2022-09-15T00:54:09.597Z,12.47
2022-09-15T00:56:38.915Z,13.30
2022-09-15T00:59:11.655Z,15.00
2022-09-15T01:01:41.363Z,15.43
2022-09-15T01:04:09.710Z,15.43
2022-09-15T01:06:46.102Z,13.03
2022-09-15T01:09:17.676Z,12.73
2022-09-15T01:11:45.620Z,14.87
2022-09-15T01:14:13.648Z,14.30
2022-09-15T01:16:51.918Z,12.57
2022-09-15T01:19:48.790Z,9.93
2022-09-15T01:22:33.568Z,7.77
2022-09-15T01:25:09.377Z,8.60
2022-09-15T01:28:09.768Z,8.17
2022-09-15T01:30:43.320Z,8.03
2022-09-15T01:33:21.747Z,9.83
2022-09-15T01:36:11.640Z,9.27
2022-09-15T01:38:50.870Z,6.40
2022-09-15T01:41:25.417Z,7.80
2022-09-15T01:44:00.891Z,7.30
2022-09-15T01:46:35.984Z,5.30
2022-09-15T01:49:05.883Z,5.87
2022-09-15T01:51:35.854Z,4.73
2022-09-15T01:54:06.851Z,6.93
2022-09-15T01:56:34.880Z,4.43
2022-09-15T01:59:03.653Z,3.93
2022-09-15T02:01:43.131Z,4.30
2022-09-15T02:04:15.559Z,3.97
2022-09-15T02:06:53.439Z,6.17
2022-09-15T02:09:26.489Z,7.97
2022-09-15T02:12:02.850Z,10.27
2022-09-15T02:14:48.111Z,4.57
2022-09-15T02:17:20.699Z,4.83
2022-09-15T02:19:51.878Z,4.97
2022-09-15T02:22:24.551Z,7.17
2022-09-15T02:24:59.116Z,4.47
2022-09-15T02:27:30.988Z,3.20
2022-09-15T02:30:05.927Z,3.43
2022-09-15T02:32:38.382Z,4.57
2022-09-15T02:35:09.325Z,4.87
2022-09-15T02:37:38.305Z,5.17
2022-09-15T02:40:08.456Z,2.43
2022-09-15T02:42:37.111Z,3.00
2022-09-15T02:45:06.088Z,3.07
2022-09-15T02:47:36.698Z,4.00
2022-09-15T02:50:05.328Z,2.30
2022-09-15T02:52:33.826Z,3.93
2022-09-15T02:55:01.747Z,6.03
2022-09-15T02:57:29.787Z,3.37
2022-09-15T03:00:16.725Z,2.67
2022-09-15T03:02:49.864Z,4.37
2022-09-15T03:05:20.008Z,3.13
2022-09-15T03:07:47.902Z,3.70
2022-09-15T03:10:16.309Z,4.60
2022-09-15T03:12:47.355Z,7.77
2022-09-15T03:15:17.509Z,12.00
2022-09-15T03:17:47.958Z,10.80
2022-09-15T03:20:18.155Z,12.20
2022-09-15T03:22:46.327Z,15.33
2022-09-15T03:25:14.354Z,16.50
2022-09-15T03:27:42.424Z,17.63
2022-09-15T03:30:12.009Z,19.37
2022-09-15T03:32:39.938Z,17.57
2022-09-15T03:35:10.312Z,20.40
2022-09-15T03:37:38.553Z,18.40
2022-09-15T03:40:07.752Z,23.60
2022-09-15T03:42:35.819Z,20.13
2022-09-15T03:45:06.200Z,29.77
2022-09-15T03:47:34.789Z,31.07
2022-09-15T03:50:02.799Z,31.10
2022-09-15T03:52:33.558Z,30.27
2022-09-15T03:55:01.477Z,30.07
2022-09-15T03:57:29.553Z,31.73
2022-09-15T03:59:57.433Z,34.10
2022-09-15T04:02:25.494Z,32.97
2022-09-15T04:04:53.413Z,37.57
2022-09-15T04:07:21.342Z,40.43
2022-09-15T04:09:50.686Z,44.07
2022-09-15T04:12:18.998Z,52.00
2022-09-15T04:14:47.945Z,49.80
2022-09-15T04:17:16.283Z,56.93
2022-09-15T04:19:44.148Z,61.73
2022-09-15T04:22:17.034Z,54.20
2022-09-15T04:24:48.162Z,50.17
2022-09-15T04:27:19.018Z,55.27
2022-09-15T04:29:48.010Z,50.73
2022-09-15T04:32:16.069Z,48.87
2022-09-15T04:34:44.008Z,46.27
2022-09-15T04:37:12.067Z,43.80
2022-09-15T04:39:40.072Z,45.27
2022-09-15T04:42:08.029Z,36.93
2022-09-15T04:44:37.772Z,30.03
2022-09-15T04:47:07.139Z,30.10
2022-09-15T04:49:35.355Z,21.03
2022-09-15T04:52:07.728Z,21.93
2022-09-15T04:54:37.698Z,16.43
2022-09-15T04:57:05.795Z,14.57
2022-09-15T04:59:34.038Z,11.10
2022-09-15T05:02:03.662Z,10.97
2022-09-15T05:05:02.241Z,10.13
2022-09-15T05:07:30.626Z,9.83
2022-09-15T05:09:58.793Z,10.33
2022-09-15T05:12:26.682Z,8.50
2022-09-15T05:14:54.747Z,17.47
2022-09-15T05:17:26.786Z,10.77
2022-09-15T05:19:54.822Z,16.63
2022-09-15T05:22:22.790Z,8.90
2022-09-15T05:24:50.707Z,9.93
2022-09-15T05:27:18.619Z,8.93
2022-09-15T05:29:47.170Z,9.83
2022-09-15T05:32:15.948Z,13.87
2022-09-15T05:34:45.151Z,8.87
2022-09-15T05:37:13.095Z,8.03
2022-09-15T05:39:41.026Z,7.00
2022-09-15T05:42:09.842Z,9.37
2022-09-15T05:44:37.769Z,5.47
2022-09-15T05:47:05.999Z,7.30
2022-09-15T05:49:33.959Z,12.63
2022-09-15T05:52:04.249Z,14.30
2022-09-15T05:54:32.126Z,9.30
2022-09-15T05:57:00.175Z,10.10
2022-09-15T05:59:28.580Z,10.30
2022-09-15T06:01:56.474Z,8.07
2022-09-15T06:04:24.371Z,7.17
2022-09-15T06:06:52.506Z,6.53
2022-09-15T06:09:21.950Z,9.10
2022-09-15T06:11:50.328Z,6.57
2022-09-15T06:14:18.232Z,8.97
2022-09-15T06:16:46.125Z,9.47
2022-09-15T06:19:14.029Z,10.07
2022-09-15T06:21:42.019Z,8.83
2022-09-15T06:24:13.236Z,11.80
2022-09-15T06:26:42.610Z,7.43
2022-09-15T06:29:13.316Z,6.23
2022-09-15T06:31:41.719Z,7.80
2022-09-15T06:34:11.230Z,5.07
2022-09-15T06:36:40.146Z,4.77
2022-09-15T06:39:08.496Z,4.17
2022-09-15T06:41:58.864Z,3.50
2022-09-15T06:44:26.221Z,4.50
2022-09-15T06:46:54.380Z,5.77
2022-09-15T06:49:22.644Z,7.47
2022-09-15T06:51:50.533Z,6.20
2022-09-15T06:54:18.708Z,5.23
2022-09-15T06:56:47.388Z,7.70
2022-09-15T06:59:16.696Z,4.60
2022-09-15T07:01:46.202Z,3.77
2022-09-15T07:04:14.184Z,15.90
2022-09-15T07:06:42.102Z,4.00
2022-09-15T07:09:11.541Z,4.43
2022-09-15T07:11:39.613Z,43.87
2022-09-15T07:14:07.799Z,10.03
2022-09-15T07:16:35.957Z,25.17
2022-09-15T07:19:05.907Z,50.70
2022-09-15T07:21:35.157Z,7.10
2022-09-15T07:24:06.973Z,13.10
2022-09-15T07:26:35.777Z,4.13
2022-09-15T07:29:06.718Z,12.50
2022-09-15T07:31:36.929Z,4.33
2022-09-15T07:34:06.579Z,9.97
2022-09-15T07:36:35.098Z,9.53
2022-09-15T07:39:04.682Z,77.03
2022-09-15T07:41:33.347Z,37.27
2022-09-15T07:44:01.761Z,5.17
2022-09-15T07:46:32.860Z,3.57
2022-09-15T07:49:03.008Z,103.47
2022-09-15T07:51:32.487Z,265.50
2022-09-15T07:54:00.672Z,95.40
2022-09-15T07:56:28.734Z,9.10
2022-09-15T07:58:57.983Z,12.07
2022-09-15T08:01:26.409Z,2.87
2022-09-15T08:03:54.547Z,43.43
2022-09-15T08:06:24.415Z,118.20
2022-09-15T08:08:59.238Z,10.57
2022-09-15T08:11:29.021Z,6.83
2022-09-15T08:13:56.999Z,7.83
2022-09-15T08:16:25.487Z,6.80
2022-09-15T08:18:54.806Z,15.93
2022-09-15T08:21:23.408Z,7.03
2022-09-15T08:23:56.074Z,9.63
2022-09-15T08:26:24.562Z,5.80
2022-09-15T08:28:52.890Z,9.03
2022-09-15T08:31:21.304Z,8.70
2022-09-15T08:33:50.051Z,8.97
2022-09-15T08:36:18.741Z,14.40
2022-09-15T08:38:47.425Z,41.03
2022-09-15T08:41:21.444Z,116.57
2022-09-15T08:43:57.792Z,43.90
2022-09-15T08:46:32.769Z,48.07
2022-09-15T08:49:06.411Z,13.00
2022-09-15T08:51:42.094Z,11.17
2022-09-15T08:54:15.521Z,9.27
2022-09-15T08:56:45.387Z,8.47
2022-09-15T08:59:18.517Z,11.73
2022-09-15T09:02:26.666Z,7.00
2022-09-15T09:05:03.116Z,6.13
2022-09-15T09:08:10.324Z,8.93
2022-09-15T09:10:46.868Z,7.03
2022-09-15T09:13:24.765Z,10.63
2022-09-15T09:16:04.064Z,8.80
2022-09-15T09:18:48.670Z,7.70
2022-09-15T09:21:23.537Z,7.80
2022-09-15T09:23:56.917Z,9.90
2022-09-15T09:26:24.787Z,11.17
2022-09-15T09:28:59.574Z,10.23
2022-09-15T09:31:29.469Z,12.90
2022-09-15T09:34:06.214Z,10.57
2022-09-15T09:36:35.150Z,15.20
2022-09-15T09:39:04.143Z,13.47
2022-09-15T09:41:36.588Z,15.50
2022-09-15T09:44:11.337Z,10.57
2022-09-15T09:46:39.385Z,14.47
2022-09-15T09:49:18.811Z,18.07
2022-09-15T09:51:52.154Z,14.30
2022-09-15T09:54:21.685Z,11.67
2022-09-15T09:56:50.632Z,11.00
2022-09-15T09:59:36.422Z,9.67
2022-09-15T10:02:19.290Z,9.13
2022-09-15T10:04:48.815Z,11.80
2022-09-15T10:07:19.163Z,10.33
2022-09-15T10:09:53.598Z,15.43
2022-09-15T10:12:24.562Z,7.83
2022-09-15T10:14:56.341Z,9.23
2022-09-15T10:17:28.135Z,9.40
2022-09-15T10:19:57.685Z,9.33
2022-09-15T10:22:29.567Z,9.93
2022-09-15T10:24:58.018Z,13.10
2022-09-15T10:27:32.030Z,9.37
2022-09-15T10:30:18.156Z,10.70
2022-09-15T10:32:46.046Z,9.37
2022-09-15T10:35:16.589Z,8.60
2022-09-15T10:38:04.904Z,9.00
2022-09-15T10:40:38.799Z,9.27
2022-09-15T10:43:29.060Z,9.00
2022-09-15T10:46:05.178Z,8.33
2022-09-15T10:48:55.362Z,9.77
2022-09-15T10:51:35.077Z,8.20
2022-09-15T10:54:20.301Z,9.40
2022-09-15T10:56:53.112Z,10.00
2022-09-15T10:59:42.088Z,10.77
2022-09-15T11:02:45.025Z,8.87
2022-09-15T11:05:44.077Z,8.70
2022-09-15T11:08:33.089Z,8.33
2022-09-15T11:11:07.620Z,8.87
2022-09-15T11:13:44.037Z,9.17
2022-09-15T11:16:33.054Z,11.07
2022-09-15T11:19:17.658Z,11.37
2022-09-15T11:21:48.909Z,7.60
2022-09-15T11:24:33.272Z,9.07
2022-09-15T11:27:06.402Z,11.10
2022-09-15T11:29:42.316Z,7.80
2022-09-15T11:32:16.281Z,8.73
2022-09-15T11:34:53.085Z,8.60
2022-09-15T11:37:24.980Z,8.97
2022-09-15T11:40:00.022Z,8.53
2022-09-15T11:42:36.451Z,8.00
2022-09-15T11:45:05.956Z,7.77
2022-09-15T11:47:40.857Z,10.10
2022-09-15T11:50:19.615Z,5.57
2022-09-15T11:53:08.532Z,6.50
2022-09-15T11:55:42.905Z,8.00
2022-09-15T11:58:22.383Z,5.33
2022-09-15T12:00:56.306Z,9.27
2022-09-15T12:03:31.150Z,6.20
2022-09-15T12:06:06.483Z,5.23
2022-09-15T12:08:38.507Z,9.73
2022-09-15T12:11:14.179Z,4.07
2022-09-15T12:13:42.680Z,3.13
2022-09-15T12:16:11.205Z,4.13
2022-09-15T12:18:46.995Z,7.13
2022-09-15T12:21:20.721Z,5.90
2022-09-15T12:23:55.725Z,3.83
2022-09-15T12:26:26.149Z,3.63
2022-09-15T12:28:57.886Z,4.53
2022-09-15T12:31:30.594Z,4.73
2022-09-15T12:34:00.870Z,5.20
2022-09-15T12:36:42.936Z,6.53
2022-09-15T12:39:30.385Z,4.57
2022-09-15T12:42:14.760Z,4.50
2022-09-15T12:44:45.641Z,3.67
2022-09-15T12:47:24.344Z,6.67
2022-09-15T12:49:54.773Z,6.53
2022-09-15T12:52:25.592Z,4.43
2022-09-15T12:54:57.332Z,7.20
2022-09-15T12:57:28.584Z,5.03
2022-09-15T13:00:18.030Z,3.73
2022-09-15T13:02:47.607Z,4.27
2022-09-15T13:05:36.226Z,5.87
2022-09-15T13:08:12.721Z,4.60
2022-09-15T13:10:44.539Z,4.37
2022-09-15T13:13:23.724Z,4.83
2022-09-15T13:15:54.124Z,8.93
2022-09-15T13:18:23.132Z,5.37
2022-09-15T13:20:55.691Z,5.53
2022-09-15T13:23:28.789Z,5.17
2022-09-15T13:26:01.008Z,4.50
2022-09-15T13:28:29.350Z,5.10
2022-09-15T13:31:20.815Z,4.73
2022-09-15T13:41:10.065Z,7.60
2022-09-15T13:44:15.287Z,3.70
2022-09-15T13:46:54.770Z,4.30
2022-09-15T13:49:44.863Z,3.10
2022-09-15T13:52:27.906Z,4.33
2022-09-15T13:55:20.947Z,4.70
2022-09-15T14:00:55.258Z,4.97
2022-09-15T14:03:27.347Z,4.60
2022-09-15T14:05:56.693Z,5.13
2022-09-15T14:08:27.904Z,6.17
2022-09-15T14:10:59.459Z,4.87
2022-09-15T14:13:29.623Z,4.57
2022-09-15T14:16:00.824Z,5.43
2022-09-15T14:18:29.208Z,4.33
2022-09-15T14:23:33.020Z,7.93
2022-09-15T14:26:02.339Z,3.80
2022-09-15T14:28:34.864Z,3.80
2022-09-15T14:31:04.280Z,5.73
2022-09-15T14:33:38.034Z,4.03
2022-09-15T14:36:14.675Z,3.07
2022-09-15T14:38:42.775Z,3.87
2022-09-15T14:41:21.134Z,2.47
2022-09-15T14:43:49.010Z,2.60
2022-09-15T14:46:20.775Z,5.70
2022-09-15T14:48:48.795Z,4.77
2022-09-15T14:51:23.827Z,3.50
2022-09-15T14:53:56.053Z,6.00
2022-09-15T14:56:26.050Z,2.90
2022-09-15T14:58:56.600Z,3.47
2022-09-15T15:01:32.427Z,3.37
2022-09-15T15:04:09.782Z,4.03
2022-09-15T15:06:40.828Z,3.70
2022-09-15T15:09:13.538Z,4.20
2022-09-15T15:11:43.210Z,3.37
2022-09-15T15:14:14.398Z,3.33
2022-09-15T15:16:55.493Z,3.53
2022-09-15T15:19:34.604Z,3.53
2022-09-15T15:22:20.972Z,4.83
2022-09-15T15:24:50.847Z,2.80
2022-09-15T15:27:43.863Z,2.20
2022-09-15T15:30:35.868Z,3.30
2022-09-15T15:33:06.957Z,2.70
2022-09-15T15:35:36.279Z,3.63
2022-09-15T15:38:08.155Z,4.53
2022-09-15T15:40:38.825Z,6.57
2022-09-15T15:43:16.033Z,3.43
2022-09-15T15:45:51.226Z,5.07
2022-09-15T15:48:20.517Z,3.10
2022-09-15T15:50:48.460Z,3.73
2022-09-15T15:53:16.558Z,2.23
2022-09-15T15:55:45.184Z,2.30
2022-09-15T15:58:14.819Z,2.97
2022-09-15T16:00:46.005Z,3.63
2022-09-15T16:03:15.348Z,3.93
2022-09-15T16:05:46.817Z,2.60
2022-09-15T16:08:22.472Z,4.67
2022-09-15T16:10:51.785Z,2.93
2022-09-15T16:13:22.110Z,3.33
2022-09-15T16:15:50.331Z,2.53
2022-09-15T16:18:18.179Z,3.27
2022-09-15T16:20:47.554Z,2.67
2022-09-15T16:23:17.557Z,3.00
2022-09-15T16:25:49.896Z,5.10
2022-09-15T16:28:17.980Z,5.73
2022-09-15T16:30:45.888Z,4.57
2022-09-15T16:33:15.739Z,3.97
2022-09-15T16:35:51.159Z,4.17
2022-09-15T16:38:20.226Z,4.07
2022-09-15T16:40:48.922Z,3.73
2022-09-15T16:43:19.000Z,3.37
2022-09-15T16:45:47.348Z,3.23
2022-09-15T16:48:15.583Z,3.47
2022-09-15T16:51:16.126Z,2.63
2022-09-15T16:53:33.386Z,3.70
2022-09-15T16:56:01.341Z,2.87
2022-09-15T16:58:29.533Z,4.17
2022-09-15T17:00:57.960Z,2.30
2022-09-15T17:03:27.805Z,2.90
2022-09-15T17:05:58.719Z,4.57
2022-09-15T17:08:29.430Z,2.83
2022-09-15T17:11:00.360Z,2.93
2022-09-15T17:13:31.450Z,3.50
2022-09-15T17:16:00.240Z,4.93
2022-09-15T17:18:29.386Z,3.83
2022-09-15T17:20:58.981Z,3.33
2022-09-15T17:23:28.928Z,4.10
2022-09-15T17:25:59.909Z,4.60
2022-09-15T17:28:33.589Z,4.63
2022-09-15T17:31:03.851Z,4.10
2022-09-15T17:33:39.622Z,5.27
2022-09-15T17:36:08.323Z,4.07
2022-09-15T17:38:36.253Z,3.23
2022-09-15T17:41:05.809Z,8.03
2022-09-15T17:43:34.066Z,5.43
2022-09-15T17:46:02.256Z,7.93
2022-09-15T17:48:30.199Z,4.63
2022-09-15T17:50:58.171Z,6.80
2022-09-15T17:53:27.309Z,4.87
2022-09-15T17:55:56.538Z,6.27
2022-09-15T17:58:29.878Z,6.77
2022-09-15T18:00:59.014Z,5.50
2022-09-15T18:03:29.988Z,8.30
2022-09-15T18:05:59.895Z,9.50
2022-09-15T18:08:28.789Z,3.53
2022-09-15T18:10:56.740Z,3.37
2022-09-15T18:13:27.934Z,4.50
2022-09-15T18:15:57.293Z,7.37
2022-09-15T18:18:26.713Z,5.33
2022-09-15T18:20:57.708Z,5.60
2022-09-15T18:23:28.475Z,5.90
2022-09-15T18:25:56.546Z,6.40
2022-09-15T18:28:26.215Z,5.13
2022-09-15T18:30:54.078Z,5.30
2022-09-15T18:33:24.341Z,4.03
2022-09-15T18:35:53.811Z,5.43
2022-09-15T18:38:22.824Z,7.10
2022-09-15T18:40:53.432Z,3.17
2022-09-15T18:43:22.459Z,5.60
2022-09-15T18:45:53.282Z,5.37
2022-09-15T18:48:21.497Z,2.30
2022-09-15T18:50:49.815Z,4.97
2022-09-15T18:53:17.829Z,3.33
2022-09-15T18:55:46.213Z,2.50
2022-09-15T18:58:14.208Z,6.10
2022-09-15T19:00:42.513Z,4.27
2022-09-15T19:03:13.994Z,3.30
2022-09-15T19:05:42.034Z,7.10
2022-09-15T19:08:11.372Z,5.90
2022-09-15T19:10:42.409Z,3.77
2022-09-15T19:13:11.340Z,5.43
2022-09-15T19:15:40.697Z,3.17
2022-09-15T19:18:08.894Z,5.73
2022-09-15T19:20:38.485Z,2.03
2022-09-15T19:23:06.683Z,1.77
2022-09-15T19:25:34.955Z,2.67
2022-09-15T19:28:03.632Z,3.47
2022-09-15T19:30:31.832Z,3.73
2022-09-15T19:33:05.292Z,6.63
2022-09-15T19:35:33.425Z,2.90
2022-09-15T19:38:02.752Z,3.70
2022-09-15T19:40:30.975Z,5.43
2022-09-15T19:42:58.877Z,2.63
2022-09-15T19:45:26.987Z,2.67
2022-09-15T19:47:54.843Z,4.90
2022-09-15T19:50:23.347Z,2.23
2022-09-15T19:52:51.240Z,2.47
2022-09-15T19:55:20.665Z,5.17
2022-09-15T19:57:48.520Z,3.43
2022-09-15T20:00:16.752Z,6.30
2022-09-15T20:02:48.893Z,3.20
2022-09-15T20:05:16.891Z,1.80
2022-09-15T20:07:48.152Z,5.50
2022-09-15T20:10:16.270Z,3.67
2022-09-15T20:12:45.575Z,4.40
2022-09-15T20:15:13.536Z,3.93
2022-09-15T20:17:42.444Z,1.77
2022-09-15T20:20:12.054Z,6.43
2022-09-15T20:22:39.962Z,4.63
2022-09-15T20:25:08.368Z,2.57
2022-09-15T20:27:36.306Z,3.23
2022-09-15T20:30:07.125Z,3.63
2022-09-15T20:32:35.141Z,2.30
2022-09-15T20:35:03.157Z,3.60
2022-09-15T20:37:35.270Z,4.77
2022-09-15T20:40:06.748Z,5.47
2022-09-15T20:42:36.714Z,5.23
2022-09-15T20:45:07.430Z,5.77
2022-09-15T20:47:35.333Z,5.23
2022-09-15T20:50:03.273Z,5.47
2022-09-15T20:52:37.376Z,5.50
2022-09-15T20:55:06.881Z,5.80
2022-09-15T20:57:34.728Z,3.77
2022-09-15T21:00:04.757Z,6.97
2022-09-15T21:02:34.132Z,3.13
2022-09-15T21:05:02.104Z,4.13
2022-09-15T21:07:30.182Z,3.10
2022-09-15T21:09:58.267Z,4.37
2022-09-15T21:12:43.169Z,2.77
2022-09-15T21:15:11.885Z,5.03
2022-09-15T21:17:41.118Z,4.83
2022-09-15T21:20:10.146Z,5.87
2022-09-15T21:22:38.150Z,2.47
2022-09-15T21:25:06.999Z,2.43
2022-09-15T21:27:34.973Z,2.93
2022-09-15T21:30:02.959Z,4.43
2022-09-15T21:32:33.075Z,9.60
2022-09-15T21:35:02.543Z,3.30
2022-09-15T21:37:31.919Z,2.27
2022-09-15T21:40:00.012Z,2.40
2022-09-15T21:42:28.496Z,3.53
2022-09-15T21:44:56.958Z,7.60
2022-09-15T21:47:24.819Z,3.93
2022-09-15T21:49:52.726Z,6.20
2022-09-15T21:52:21.988Z,2.73
2022-09-15T21:54:49.888Z,2.90
2022-09-15T21:57:17.914Z,2.77
2022-09-15T21:59:46.398Z,5.87
2022-09-15T22:02:14.375Z,2.50
2022-09-15T22:04:42.254Z,3.37
2022-09-15T22:07:10.216Z,3.47
2022-09-15T22:09:39.916Z,3.57
2022-09-15T22:12:08.471Z,4.00
2022-09-15T22:14:36.479Z,4.40
2022-09-15T22:17:04.409Z,3.03
2022-09-15T22:19:32.227Z,3.90
2022-09-15T22:22:00.112Z,3.73
2022-09-15T22:24:27.922Z,3.50
2022-09-15T22:26:57.187Z,3.53
2022-09-15T22:29:25.113Z,3.77
2022-09-15T22:31:53.063Z,4.23
2022-09-15T22:34:21.062Z,3.47
2022-09-15T22:36:49.203Z,4.30
2022-09-15T22:39:17.456Z,3.87
2022-09-15T22:41:45.349Z,3.73
2022-09-15T22:44:20.828Z,3.17
2022-09-15T22:46:49.666Z,4.53
2022-09-15T22:49:17.760Z,2.33
2022-09-15T22:51:46.023Z,6.03
2022-09-15T22:54:14.023Z,3.30
2022-09-15T22:56:41.900Z,6.37
2022-09-15T22:59:09.748Z,4.27
2022-09-15T23:01:39.143Z,4.33
2022-09-15T23:04:07.117Z,6.23
2022-09-15T23:06:36.012Z,6.90
2022-09-15T23:09:05.831Z,2.17
2022-09-15T23:11:34.174Z,4.40
2022-09-15T23:14:02.951Z,3.13
2022-09-15T23:16:32.278Z,4.30
2022-09-15T23:19:02.488Z,4.30
2022-09-15T23:21:30.374Z,6.50
2022-09-15T23:23:59.194Z,8.10
2022-09-15T23:26:28.720Z,10.80
2022-09-15T23:28:56.893Z,7.20
2022-09-15T23:31:24.857Z,4.13
2022-09-15T23:33:52.771Z,6.10
2022-09-15T23:36:22.170Z,3.73
2022-09-15T23:38:50.672Z,3.70
2022-09-15T23:41:19.203Z,5.20
2022-09-15T23:43:47.426Z,5.40
2022-09-15T23:46:15.459Z,4.37
2022-09-15T23:48:43.647Z,5.80
2022-09-15T23:51:11.569Z,4.87
2022-09-15T23:53:40.835Z,4.63
2022-09-15T23:56:09.151Z,3.57
2022-09-15T23:58:37.106Z,2.90
